createdAt,value
2022-08-11T00:00:00.918Z,996.614
2022-08-11T00:01:01.037Z,996.6647
2022-08-11T00:02:01.228Z,996.6357
2022-08-11T00:03:00.439Z,996.6067
2022-08-11T00:04:00.489Z,996.6357
2022-08-11T00:05:00.660Z,996.5417
2022-08-11T00:06:00.777Z,996.6067
2022-08-11T00:07:00.935Z,996.5997
2022-08-11T00:08:01.079Z,996.5997
2022-08-11T00:09:01.223Z,996.6576
2022-08-11T00:10:00.397Z,996.5927
2022-08-11T00:11:00.522Z,996.6506
2022-08-11T00:12:00.675Z,996.5784
2022-08-11T00:13:00.827Z,996.5859
2022-08-11T00:14:00.984Z,996.6438
2022-08-11T00:15:01.160Z,996.6728
2022-08-11T00:16:00.281Z,996.7597
2022-08-11T00:17:00.422Z,996.6367
2022-08-11T00:18:00.569Z,996.5137
2022-08-11T00:19:00.727Z,996.7672
2022-08-11T00:20:13.793Z,996.6803
2022-08-11T00:21:01.009Z,996.6444
2022-08-11T00:22:05.249Z,996.5214
2022-08-11T00:23:00.301Z,996.6083
2022-08-11T00:24:00.448Z,996.6372
2022-08-11T00:25:02.660Z,996.565
2022-08-11T00:26:00.760Z,996.4639
2022-08-11T00:27:00.912Z,996.6014
2022-08-11T00:28:01.075Z,996.6882
2022-08-11T00:29:01.218Z,996.6089
2022-08-11T00:30:00.391Z,996.696
2022-08-11T00:31:00.544Z,996.6239
2022-08-11T00:32:00.676Z,996.5152
2022-08-11T00:33:00.817Z,996.7761
2022-08-11T00:34:00.969Z,996.6318
2022-08-11T00:35:55.547Z,996.726
2022-08-11T00:36:00.303Z,996.5669
2022-08-11T00:37:00.418Z,996.726
2022-08-11T00:38:00.563Z,996.6607
2022-08-11T00:39:00.715Z,996.74
2022-08-11T00:40:00.949Z,996.8122
2022-08-11T00:41:01.048Z,996.6239
2022-08-11T00:42:01.178Z,996.8483
2022-08-11T00:43:00.320Z,996.7761
2022-08-11T00:44:00.474Z,996.7761
2022-08-11T00:45:00.636Z,996.7329
2022-08-11T00:46:00.792Z,996.8054
2022-08-11T00:47:00.962Z,996.7839
2022-08-11T00:48:01.074Z,996.6105
2022-08-11T00:49:01.230Z,996.6613
2022-08-11T00:50:00.379Z,996.712
2022-08-11T00:51:00.532Z,996.7916
2022-08-11T00:52:05.812Z,996.7916
2022-08-11T00:53:00.826Z,996.6762
2022-08-11T00:54:00.974Z,996.6619
2022-08-11T00:55:01.123Z,996.4886
2022-08-11T00:56:00.275Z,996.6839
2022-08-11T00:57:00.453Z,996.7346
2022-08-11T00:58:00.575Z,996.5975
2022-08-11T00:59:00.726Z,996.6843
2022-08-11T01:00:03.751Z,996.6554
2022-08-11T01:01:01.167Z,996.6699
2022-08-11T01:02:01.196Z,996.6628
2022-08-11T01:03:00.337Z,996.6775
2022-08-11T01:04:00.481Z,996.5982
2022-08-11T01:05:00.633Z,996.5839
2022-08-11T01:06:00.790Z,996.5476
2022-08-11T01:07:00.962Z,996.5764
2022-08-11T01:08:02.917Z,996.6414
2022-08-11T01:09:01.218Z,996.6773
2022-08-11T01:10:05.107Z,996.6339
2022-08-11T01:11:00.539Z,996.6339
2022-08-11T01:12:00.703Z,996.6484
2022-08-11T01:13:00.818Z,996.6843
2022-08-11T01:14:00.971Z,996.6118
2022-08-11T01:15:01.132Z,996.6624
2022-08-11T01:16:00.287Z,996.7567
2022-08-11T01:17:00.447Z,996.5182
2022-08-11T01:18:00.575Z,996.6197
2022-08-11T01:19:00.725Z,996.5982
2022-08-11T01:20:46.809Z,996.6054
2022-08-11T01:21:01.030Z,996.6054
2022-08-11T01:22:01.193Z,996.6921
2022-08-11T01:23:00.324Z,996.6054
2022-08-11T01:24:00.476Z,996.4897
2022-08-11T01:25:00.651Z,996.6775
2022-08-11T01:26:00.781Z,996.5618
2022-08-11T01:27:00.927Z,996.5618
2022-08-11T01:28:01.093Z,996.721
2022-08-11T01:29:01.240Z,996.5765
2022-08-11T01:30:00.403Z,996.7138
2022-08-11T01:31:00.531Z,996.6924
2022-08-11T01:32:00.675Z,996.5913
2022-08-11T01:33:00.837Z,996.6059
2022-08-11T01:34:00.989Z,996.7073
2022-08-11T01:35:01.164Z,996.6859
2022-08-11T01:36:00.286Z,996.491
2022-08-11T01:37:00.427Z,996.5777
2022-08-11T01:38:00.576Z,996.6429
2022-08-11T01:39:00.727Z,996.8381
2022-08-11T01:40:00.894Z,996.549
2022-08-11T01:41:01.025Z,996.6647
2022-08-11T01:42:01.181Z,996.6939
2022-08-11T01:43:00.326Z,996.7446
2022-08-11T01:44:00.472Z,996.6365
2022-08-11T01:45:00.651Z,996.6654
2022-08-11T01:46:00.777Z,996.5932
2022-08-11T01:47:00.923Z,996.4923
2022-08-11T01:48:01.063Z,996.4734
2022-08-11T01:49:01.212Z,996.579
2022-08-11T01:50:08.403Z,996.5501
2022-08-11T01:51:00.552Z,996.4705
2022-08-11T01:52:00.695Z,996.5501
2022-08-11T01:53:00.875Z,996.5358
2022-08-11T01:54:00.991Z,996.6441
2022-08-11T01:55:01.135Z,996.6659
2022-08-11T01:56:00.287Z,996.5651
2022-08-11T01:57:00.453Z,996.4452
2022-08-11T01:58:00.615Z,996.5939
2022-08-11T01:59:00.731Z,996.4595
2022-08-11T02:00:00.874Z,996.5002
2022-08-11T02:01:01.140Z,996.5579
2022-08-11T02:02:01.185Z,996.4669
2022-08-11T02:03:00.341Z,996.5507
2022-08-11T02:04:00.474Z,996.4859
2022-08-11T02:05:00.623Z,996.5943
2022-08-11T02:06:00.775Z,996.5365
2022-08-11T02:07:00.924Z,996.5726
2022-08-11T02:08:01.109Z,996.3878
2022-08-11T02:09:01.215Z,996.431
2022-08-11T02:10:00.350Z,996.6017
2022-08-11T02:11:00.512Z,996.5226
2022-08-11T02:12:00.658Z,996.4605
2022-08-11T02:13:00.837Z,996.4316
2022-08-11T02:14:00.969Z,996.4172
2022-08-11T02:15:05.261Z,996.5876
2022-08-11T02:16:00.269Z,996.4679
2022-08-11T02:17:00.422Z,996.5445
2022-08-11T02:18:00.589Z,996.6311
2022-08-11T02:19:00.709Z,996.5231
2022-08-11T02:20:00.872Z,996.5449
2022-08-11T02:21:01.019Z,996.5665
2022-08-11T02:22:01.160Z,996.4871
2022-08-11T02:23:00.340Z,996.4394
2022-08-11T02:24:07.129Z,996.461
2022-08-11T02:25:00.604Z,996.4799
2022-08-11T02:26:00.753Z,996.4468
2022-08-11T02:27:00.909Z,996.4468
2022-08-11T02:28:01.087Z,996.3531
2022-08-11T02:29:01.199Z,996.4874
2022-08-11T02:30:00.352Z,996.4325
2022-08-11T02:31:00.504Z,996.4108
2022-08-11T02:32:25.857Z,996.4803
2022-08-11T02:33:00.820Z,996.5237
2022-08-11T02:34:00.957Z,996.6826
2022-08-11T02:35:01.104Z,996.5747
2022-08-11T02:36:01.244Z,996.5533
2022-08-11T02:37:00.400Z,996.4738
2022-08-11T02:38:00.560Z,996.6035
2022-08-11T02:39:00.685Z,996.6035
2022-08-11T02:40:00.844Z,996.6827
2022-08-11T02:41:00.999Z,996.5818
2022-08-11T02:42:01.139Z,996.5095
2022-08-11T02:43:00.319Z,996.4881
2022-08-11T02:44:00.437Z,996.4403
2022-08-11T02:45:00.588Z,996.5315
2022-08-11T02:46:00.736Z,996.4667
2022-08-11T02:47:00.886Z,996.5678
2022-08-11T02:48:01.042Z,996.3545
2022-08-11T02:49:01.177Z,996.2969
2022-08-11T02:50:06.802Z,996.5034
2022-08-11T02:51:00.490Z,996.5106
2022-08-11T02:52:00.623Z,996.5323
2022-08-11T02:53:00.778Z,996.7271
2022-08-11T02:54:00.930Z,996.3982
2022-08-11T02:55:01.092Z,996.6119
2022-08-11T02:56:01.234Z,996.504
2022-08-11T02:57:00.380Z,996.504
2022-08-11T02:58:00.510Z,996.4421
2022-08-11T02:59:00.663Z,996.4898
2022-08-11T03:00:00.832Z,996.6052
2022-08-11T03:01:00.958Z,996.5834
2022-08-11T03:02:05.296Z,996.5475
2022-08-11T03:03:01.246Z,996.4709
2022-08-11T03:04:00.403Z,996.4421
2022-08-11T03:05:00.576Z,996.6052
2022-08-11T03:06:00.710Z,996.5834
2022-08-11T03:07:00.850Z,996.5328
2022-08-11T03:08:00.991Z,996.6409
2022-08-11T03:09:01.147Z,996.6629
2022-08-11T03:10:00.299Z,996.6629
2022-08-11T03:11:00.464Z,996.6052
2022-08-11T03:12:00.578Z,996.5475
2022-08-11T03:13:00.716Z,996.4898
2022-08-11T03:14:00.868Z,996.5185
2022-08-11T03:15:01.032Z,996.468
2022-08-11T03:16:01.207Z,996.6052
2022-08-11T03:17:00.332Z,996.5763
2022-08-11T03:18:00.469Z,996.5475
2022-08-11T03:19:00.631Z,996.6343
2022-08-11T03:20:00.776Z,996.5118
2022-08-11T03:21:00.939Z,996.5763
2022-08-11T03:22:03.617Z,996.6052
2022-08-11T03:23:01.230Z,996.5193
2022-08-11T03:24:00.388Z,996.5915
2022-08-11T03:25:00.536Z,996.7068
2022-08-11T03:26:00.702Z,996.6492
2022-08-11T03:27:00.832Z,996.5555
2022-08-11T03:28:02.618Z,996.6709
2022-08-11T03:29:01.139Z,996.599
2022-08-11T03:30:00.291Z,996.6207
2022-08-11T03:31:00.458Z,996.5847
2022-08-11T03:32:00.582Z,996.6712
2022-08-11T03:33:00.719Z,996.7001
2022-08-11T03:34:06.031Z,996.5345
2022-08-11T03:35:01.031Z,996.7218
2022-08-11T03:36:01.197Z,996.5273
2022-08-11T03:37:16.248Z,996.578
2022-08-11T03:38:00.487Z,996.6284
2022-08-11T03:39:00.621Z,996.4771
2022-08-11T03:40:00.898Z,996.6213
2022-08-11T03:41:00.953Z,996.5135
2022-08-11T03:42:03.989Z,996.5636
2022-08-11T03:43:01.241Z,996.6288
2022-08-11T03:44:00.378Z,996.4775
2022-08-11T03:45:00.528Z,996.6217
2022-08-11T03:46:00.683Z,996.4775
2022-08-11T03:47:00.836Z,996.5639
2022-08-11T03:48:00.967Z,996.5928
2022-08-11T03:49:01.117Z,996.6213
2022-08-11T03:50:00.266Z,996.6213
2022-08-11T03:51:00.411Z,996.6213
2022-08-11T03:52:00.588Z,996.6504
2022-08-11T03:53:00.707Z,996.6576
2022-08-11T03:54:00.852Z,996.6792
2022-08-11T03:55:01.008Z,996.4992
2022-08-11T03:56:01.147Z,996.679
2022-08-11T03:57:00.323Z,996.6217
2022-08-11T03:58:00.450Z,996.6222
2022-08-11T03:59:00.580Z,996.68
2022-08-11T04:00:00.730Z,996.6363
2022-08-11T04:01:00.869Z,996.5498
2022-08-11T04:02:01.106Z,996.4733
2022-08-11T04:03:01.180Z,996.5786
2022-08-11T04:04:00.317Z,996.4733
2022-08-11T04:05:00.465Z,996.5283
2022-08-11T04:06:00.610Z,996.4853
2022-08-11T04:07:00.767Z,996.4376
2022-08-11T04:08:00.966Z,996.5429
2022-08-11T04:09:01.070Z,996.4781
2022-08-11T04:10:01.209Z,996.4711
2022-08-11T04:11:00.364Z,996.5287
2022-08-11T04:12:00.512Z,996.6009
2022-08-11T04:13:00.678Z,996.6874
2022-08-11T04:14:00.845Z,996.5721
2022-08-11T04:15:00.966Z,996.6874
2022-08-11T04:16:11.975Z,996.6874
2022-08-11T04:17:00.263Z,996.5504
2022-08-11T04:18:00.415Z,996.4928
2022-08-11T04:19:00.586Z,996.6298
2022-08-11T04:20:00.740Z,996.5721
2022-08-11T04:21:00.849Z,996.651
2022-08-11T04:22:01.001Z,996.5141
2022-08-11T04:23:01.155Z,996.5789
2022-08-11T04:24:12.856Z,996.5572
2022-08-11T04:25:00.464Z,996.5572
2022-08-11T04:26:00.604Z,996.5931
2022-08-11T04:27:01.963Z,996.5572
2022-08-11T04:28:00.885Z,996.5643
2022-08-11T04:29:01.043Z,996.6219
2022-08-11T04:30:04.107Z,996.6363
2022-08-11T04:31:00.323Z,996.5209
2022-08-11T04:32:00.475Z,996.5569
2022-08-11T04:33:00.630Z,996.5352
2022-08-11T04:34:00.767Z,996.6217
2022-08-11T04:35:00.938Z,996.5352
2022-08-11T04:36:01.098Z,996.4992
2022-08-11T04:37:01.242Z,996.4775
2022-08-11T04:38:00.381Z,996.5135
2022-08-11T04:39:00.528Z,996.6213
2022-08-11T04:40:00.670Z,996.506
2022-08-11T04:41:00.840Z,996.4771
2022-08-11T04:42:00.975Z,996.578
2022-08-11T04:43:01.116Z,996.585
2022-08-11T04:44:05.501Z,996.6427
2022-08-11T04:45:00.405Z,996.5345
2022-08-11T04:46:00.587Z,996.458
2022-08-11T04:47:00.696Z,996.6353
2022-08-11T04:48:03.922Z,996.4765
2022-08-11T04:49:01.012Z,996.5268
2022-08-11T04:50:01.167Z,996.7068
2022-08-11T04:51:08.688Z,996.5555
2022-08-11T04:52:00.461Z,996.6492
2022-08-11T04:53:00.611Z,996.6275
2022-08-11T04:54:00.762Z,996.5987
2022-08-11T04:55:00.906Z,996.5987
2022-08-11T04:56:01.094Z,996.6635
2022-08-11T04:57:01.221Z,996.5335
2022-08-11T04:58:00.373Z,996.5118
2022-08-11T04:59:00.533Z,996.6126
2022-08-11T05:00:00.677Z,996.6629
2022-08-11T05:01:00.842Z,996.5186
2022-08-11T05:02:01.001Z,996.5475
2022-08-11T05:03:01.115Z,996.5546
2022-08-11T05:04:00.276Z,996.7202
2022-08-11T05:05:00.418Z,996.5759
2022-08-11T05:06:00.585Z,996.6479
2022-08-11T05:07:00.713Z,996.6337
2022-08-11T05:08:00.858Z,996.7056
2022-08-11T05:09:01.020Z,996.6048
2022-08-11T05:10:01.173Z,996.6551
2022-08-11T05:11:00.339Z,996.7559
2022-08-11T05:12:01.673Z,996.5248
2022-08-11T05:13:00.597Z,996.5825
2022-08-11T05:14:00.742Z,996.6399
2022-08-11T05:15:00.902Z,996.6035
2022-08-11T05:16:01.063Z,996.6538
2022-08-11T05:17:01.196Z,996.6033
2022-08-11T05:18:00.345Z,996.603
2022-08-11T05:19:00.492Z,996.6243
2022-08-11T05:20:00.640Z,996.6675
2022-08-11T05:21:04.885Z,996.6023
2022-08-11T05:22:00.950Z,996.6741
2022-08-11T05:23:01.082Z,996.9769
2022-08-11T05:24:01.231Z,996.7459
2022-08-11T05:25:00.374Z,996.7166
2022-08-11T05:26:42.636Z,996.7234
2022-08-11T05:27:00.686Z,996.8891
2022-08-11T05:28:00.816Z,996.7222
2022-08-11T05:29:01.008Z,996.8158
2022-08-11T05:30:01.127Z,996.6995
2022-08-11T05:31:00.271Z,996.6628
2022-08-11T05:32:00.437Z,996.6332
2022-08-11T05:33:02.303Z,996.6541
2022-08-11T05:34:00.714Z,996.7835
2022-08-11T05:35:00.872Z,996.5946
2022-08-11T05:36:03.131Z,996.6803
2022-08-11T05:37:23.770Z,996.7302
2022-08-11T05:38:00.333Z,996.6278
2022-08-11T05:39:00.466Z,996.6556
2022-08-11T05:40:00.731Z,996.6694
2022-08-11T05:41:00.775Z,996.6831
2022-08-11T05:42:00.912Z,996.7835
2022-08-11T05:43:01.082Z,996.6304
2022-08-11T05:44:19.682Z,996.8544
2022-08-11T05:45:00.354Z,996.6431
2022-08-11T05:46:04.710Z,996.5553
2022-08-11T05:47:00.654Z,996.6853
2022-08-11T05:48:00.811Z,996.7429
2022-08-11T05:49:00.950Z,996.8365
2022-08-11T05:50:01.112Z,996.7996
2022-08-11T05:51:01.241Z,996.6246
2022-08-11T05:52:04.843Z,996.6751
2022-08-11T05:53:00.557Z,996.6237
2022-08-11T05:54:00.689Z,996.7179
2022-08-11T05:55:06.066Z,996.8045
2022-08-11T05:56:02.282Z,996.6296
2022-08-11T05:57:01.125Z,996.6947
2022-08-11T05:58:00.296Z,996.6362
2022-08-11T05:59:00.422Z,996.6211
2022-08-11T06:00:00.568Z,996.4896
2022-08-11T06:01:00.714Z,996.8388
2022-08-11T06:02:00.913Z,996.6562
2022-08-11T06:03:01.050Z,996.6271
2022-08-11T06:04:01.157Z,996.7432
2022-08-11T06:05:00.303Z,996.5681
2022-08-11T06:06:00.452Z,996.6117
2022-08-11T06:07:00.606Z,996.7639
2022-08-11T06:08:00.760Z,996.6324
2022-08-11T06:09:00.912Z,996.7336
2022-08-11T06:10:01.050Z,996.6891
2022-08-11T06:11:01.206Z,996.9073
2022-08-11T06:12:00.368Z,996.6737
2022-08-11T06:13:00.522Z,996.761
2022-08-11T06:14:00.707Z,996.8189
2022-08-11T06:15:00.839Z,996.7236
2022-08-11T06:16:06.249Z,996.7669
2022-08-11T06:17:01.135Z,996.6715
2022-08-11T06:18:00.317Z,996.7223
2022-08-11T06:19:00.436Z,996.6926
2022-08-11T06:20:07.176Z,996.6557
2022-08-11T06:21:00.732Z,996.7794
2022-08-11T06:22:00.888Z,996.713
2022-08-11T06:23:01.067Z,996.9171
2022-08-11T06:24:01.195Z,996.7343
2022-08-11T06:25:00.336Z,996.7265
2022-08-11T06:26:00.495Z,996.7332
2022-08-11T06:27:12.184Z,996.7694
2022-08-11T06:28:00.786Z,996.8563
2022-08-11T06:29:00.927Z,996.8923
2022-08-11T06:30:01.098Z,997.0011
2022-08-11T06:31:01.218Z,996.9348
2022-08-11T06:32:00.359Z,996.7002
2022-08-11T06:33:00.521Z,996.7071
2022-08-11T06:34:00.672Z,996.7506
2022-08-11T06:35:00.824Z,996.8673
2022-08-11T06:36:00.968Z,996.8664
2022-08-11T06:37:01.104Z,996.7198
2022-08-11T06:38:00.255Z,996.8149
2022-08-11T06:39:00.412Z,996.9752
2022-08-11T06:40:00.656Z,996.8136
2022-08-11T06:41:00.703Z,996.8789
2022-08-11T06:42:00.855Z,996.7025
2022-08-11T06:43:01.002Z,996.7391
2022-08-11T06:44:05.218Z,996.717
2022-08-11T06:45:00.310Z,996.6653
2022-08-11T06:46:00.455Z,996.8555
2022-08-11T06:47:00.646Z,996.7451
2022-08-11T06:48:00.805Z,996.9062
2022-08-11T06:49:00.924Z,996.7448
2022-08-11T06:50:01.079Z,996.7517
2022-08-11T06:51:01.218Z,996.9712
2022-08-11T06:52:01.642Z,996.8902
2022-08-11T06:53:00.518Z,996.7214
2022-08-11T06:54:04.118Z,996.6994
2022-08-11T06:55:00.815Z,996.7357
2022-08-11T06:56:00.953Z,996.6473
2022-08-11T06:57:28.243Z,996.8376
2022-08-11T06:58:01.263Z,996.7493
2022-08-11T06:59:00.433Z,996.7635
2022-08-11T07:00:00.555Z,996.7115
2022-08-11T07:01:00.701Z,996.6745
2022-08-11T07:02:00.928Z,996.6158
2022-08-11T07:03:01.025Z,996.6598
2022-08-11T07:04:01.155Z,996.8504
2022-08-11T07:05:00.304Z,996.7694
2022-08-11T07:06:00.456Z,996.5924
2022-08-11T07:07:00.612Z,996.7241
2022-08-11T07:08:33.255Z,996.7828
2022-08-11T07:09:00.934Z,996.7017
2022-08-11T07:10:01.072Z,996.635
2022-08-11T07:11:01.221Z,996.8326
2022-08-11T07:12:00.370Z,996.7444
2022-08-11T07:13:00.531Z,996.7593
2022-08-11T07:14:00.661Z,996.9274
2022-08-11T07:15:01.107Z,996.7726
2022-08-11T07:16:12.539Z,996.7716
2022-08-11T07:17:01.116Z,996.7638
2022-08-11T07:18:00.275Z,996.8157
2022-08-11T07:19:00.422Z,996.7571
2022-08-11T07:20:00.559Z,996.6691
2022-08-11T07:21:02.311Z,996.875
2022-08-11T07:22:03.763Z,996.6985
2022-08-11T07:23:01.034Z,996.7716
2022-08-11T07:24:01.198Z,996.7932
2022-08-11T07:25:02.753Z,996.661
2022-08-11T07:26:00.486Z,996.5357
2022-08-11T07:27:00.636Z,996.624
2022-08-11T07:28:00.777Z,996.6756
2022-08-11T07:29:00.931Z,996.6392
2022-08-11T07:30:01.094Z,996.6756
2022-08-11T07:31:01.231Z,996.6461
2022-08-11T07:32:00.377Z,996.705
2022-08-11T07:33:00.529Z,996.7263
2022-08-11T07:34:07.191Z,996.7696
2022-08-11T07:35:00.859Z,996.7987
2022-08-11T07:36:00.985Z,996.7617
2022-08-11T07:37:01.124Z,996.6809
2022-08-11T07:38:02.213Z,996.806
2022-08-11T07:39:00.419Z,996.7617
2022-08-11T07:40:00.652Z,996.629
2022-08-11T07:41:00.710Z,996.7319
2022-08-11T07:42:00.851Z,996.5404
2022-08-11T07:43:01.012Z,996.7908
2022-08-11T07:44:01.165Z,996.5262
2022-08-11T07:45:00.340Z,996.4895
2022-08-11T07:46:00.466Z,996.6809
2022-08-11T07:47:00.941Z,996.6072
2022-08-11T07:48:00.760Z,996.7174
2022-08-11T07:49:00.917Z,996.5923
2022-08-11T07:50:01.077Z,996.5993
2022-08-11T07:51:01.203Z,996.6725
2022-08-11T07:52:00.361Z,996.5322
2022-08-11T07:53:00.502Z,996.7234
2022-08-11T07:54:16.278Z,996.4881
2022-08-11T07:55:00.821Z,996.5318
2022-08-11T07:56:00.974Z,996.6122
2022-08-11T07:57:09.581Z,996.5526
2022-08-11T07:59:06.260Z,996.5885
2022-08-11T08:00:04.762Z,996.5441
2022-08-11T08:01:01.228Z,996.4282
2022-08-11T08:02:00.868Z,996.6679
2022-08-11T08:03:00.972Z,996.5275
2022-08-11T08:04:01.133Z,996.63
2022-08-11T08:05:00.324Z,996.504
2022-08-11T08:06:00.432Z,996.5915
2022-08-11T08:07:00.583Z,996.6426
2022-08-11T08:08:00.723Z,996.6343
2022-08-11T08:09:00.887Z,996.7224
2022-08-11T08:10:01.045Z,996.5375
2022-08-11T08:11:01.177Z,996.5299
2022-08-11T08:12:00.339Z,996.6478
2022-08-11T08:13:00.470Z,996.6028
2022-08-11T08:14:00.641Z,996.4127
2022-08-11T08:15:01.126Z,996.4197
2022-08-11T08:16:00.936Z,996.4121
2022-08-11T08:17:01.078Z,996.323
2022-08-11T08:18:09.745Z,996.4974
2022-08-11T08:19:00.379Z,996.6146
2022-08-11T08:20:00.538Z,996.3354
2022-08-11T08:21:00.658Z,996.517
2022-08-11T08:22:04.396Z,996.393
2022-08-11T08:23:00.965Z,996.3177
2022-08-11T08:24:01.109Z,996.4854
2022-08-11T08:25:01.290Z,996.3766
2022-08-11T08:26:00.405Z,996.4771
2022-08-11T08:27:00.543Z,996.4269
2022-08-11T08:28:00.701Z,996.4904
2022-08-11T08:29:00.849Z,996.4261
2022-08-11T08:30:01.027Z,996.4674
2022-08-11T08:31:01.157Z,996.5777
2022-08-11T08:32:00.318Z,996.4311
2022-08-11T08:33:00.455Z,996.4601
2022-08-11T08:34:00.629Z,996.3122
2022-08-11T08:35:00.791Z,996.3707
2022-08-11T08:36:00.941Z,996.2516
2022-08-11T08:37:01.080Z,996.43
2022-08-11T08:38:01.213Z,996.561
2022-08-11T08:39:00.358Z,996.3707
2022-08-11T08:40:00.530Z,996.4223
2022-08-11T08:41:00.652Z,996.2883
2022-08-11T08:42:00.800Z,996.399
2022-08-11T08:43:00.952Z,996.3539
2022-08-11T08:44:21.020Z,996.2122
2022-08-11T08:45:01.261Z,996.2855
2022-08-11T08:46:00.400Z,996.463
2022-08-11T08:47:00.552Z,996.2915
2022-08-11T08:48:00.694Z,996.1947
2022-08-11T08:49:00.846Z,996.2387
2022-08-11T08:50:01.020Z,996.1638
2022-08-11T08:51:01.176Z,996.2083
2022-08-11T08:52:19.931Z,996.1628
2022-08-11T08:53:00.447Z,996.311
2022-08-11T08:54:00.601Z,996.2211
2022-08-11T08:55:00.752Z,996.1914
2022-08-11T08:56:00.922Z,996.2211
2022-08-11T08:57:01.067Z,996.1469
2022-08-11T08:58:01.206Z,996.1759
2022-08-11T08:59:00.347Z,996.1161
2022-08-11T09:00:00.493Z,996.2204
2022-08-11T09:01:00.814Z,996.1748
2022-08-11T09:02:00.820Z,996.1753
2022-08-11T09:03:17.271Z,996.0864
2022-08-11T09:04:05.267Z,996.2348
2022-08-11T09:05:00.273Z,996.2045
2022-08-11T09:06:00.444Z,996.2039
2022-08-11T09:07:00.576Z,996.1961
2022-08-11T09:08:00.719Z,996.2487
2022-08-11T09:09:00.884Z,996.2039
2022-08-11T09:10:01.020Z,996.13
2022-08-11T09:11:01.200Z,996.2042
2022-08-11T09:12:00.315Z,996.2707
2022-08-11T09:13:00.473Z,996.145
2022-08-11T09:14:04.993Z,996.1389
2022-08-11T09:15:00.778Z,996.2072
2022-08-11T09:16:00.940Z,996.2662
2022-08-11T09:17:01.075Z,996.2802
2022-08-11T09:18:01.227Z,996.2578
2022-08-11T09:19:00.371Z,996.2211
2022-08-11T09:20:01.496Z,996.0577
2022-08-11T09:21:00.683Z,996.1389
2022-08-11T09:22:00.827Z,996.1983
2022-08-11T09:23:41.728Z,996.0426
2022-08-11T09:24:12.856Z,995.9971
2022-08-11T09:25:00.281Z,995.9813
2022-08-11T09:26:00.430Z,996.0767
2022-08-11T09:27:00.604Z,996.0385
2022-08-11T09:28:00.736Z,996.0301
2022-08-11T09:29:00.892Z,996.0747
2022-08-11T09:30:01.039Z,996.1187
2022-08-11T09:31:01.225Z,996.0587
2022-08-11T09:32:00.359Z,995.8947
2022-08-11T09:33:00.490Z,996.1929
2022-08-11T09:34:00.629Z,996.1558
2022-08-11T09:35:00.771Z,996.0359
2022-08-11T09:36:00.914Z,995.9612
2022-08-11T09:37:01.075Z,996.1105
2022-08-11T09:38:01.678Z,995.9607
2022-08-11T09:39:00.359Z,995.9607
2022-08-11T09:40:00.506Z,995.9615
2022-08-11T09:41:00.645Z,996.0133
2022-08-11T09:42:02.974Z,995.9085
2022-08-11T09:43:00.982Z,996.0119
2022-08-11T09:44:04.023Z,995.9371
2022-08-11T09:45:01.247Z,996.0196
2022-08-11T09:46:00.397Z,996.0645
2022-08-11T09:47:00.536Z,995.9752
2022-08-11T09:48:00.700Z,995.9008
2022-08-11T09:49:00.831Z,996.049
2022-08-11T09:50:01.609Z,996.0413
2022-08-11T09:51:01.149Z,995.9519
2022-08-11T09:52:03.369Z,996.0115
2022-08-11T09:53:36.642Z,995.9446
2022-08-11T09:54:03.843Z,995.996
2022-08-11T09:55:00.788Z,995.8833
2022-08-11T09:56:00.953Z,995.9352
2022-08-11T09:57:05.219Z,995.8612
2022-08-11T09:58:01.244Z,995.8609
2022-08-11T09:59:00.372Z,995.8542
2022-08-11T10:00:12.774Z,995.8391
2022-08-11T10:01:00.710Z,995.7648
2022-08-11T10:02:00.855Z,995.8029
2022-08-11T10:03:00.993Z,995.8174
2022-08-11T10:04:01.129Z,995.9433
2022-08-11T10:06:04.512Z,995.7559
2022-08-11T10:07:00.581Z,995.9348
2022-08-11T10:08:00.714Z,995.7641
2022-08-11T10:09:00.870Z,995.7876
2022-08-11T10:10:01.017Z,995.9596
2022-08-11T10:11:01.197Z,995.8482
2022-08-11T10:12:00.336Z,995.8408
2022-08-11T10:13:00.470Z,995.8408
2022-08-11T10:14:31.916Z,995.9001
2022-08-11T10:15:00.776Z,995.84
2022-08-11T10:16:15.100Z,995.9221
2022-08-11T10:17:01.083Z,995.683
2022-08-11T10:18:01.238Z,995.7051
2022-08-11T10:19:00.395Z,995.7791
2022-08-11T10:20:04.520Z,995.6366
2022-08-11T10:21:00.706Z,995.8217
2022-08-11T10:22:00.847Z,995.5181
2022-08-11T10:23:00.989Z,995.747
2022-08-11T10:24:06.056Z,995.6799
2022-08-11T10:25:00.280Z,995.5712
2022-08-11T10:26:00.437Z,995.6137
2022-08-11T10:27:00.831Z,995.5639
2022-08-11T10:28:17.766Z,995.7416
2022-08-11T10:29:12.762Z,995.6962
2022-08-11T10:30:01.031Z,995.6512
2022-08-11T10:31:01.189Z,995.8159
2022-08-11T10:32:04.450Z,995.4609
2022-08-11T10:33:00.524Z,995.8159
2022-08-11T10:34:00.659Z,995.5271
2022-08-11T10:35:00.788Z,995.6962
2022-08-11T10:36:00.968Z,995.6068
2022-08-11T10:37:01.104Z,995.6227
2022-08-11T10:38:07.251Z,995.6308
2022-08-11T10:39:00.397Z,995.5291
2022-08-11T10:40:00.530Z,995.5659
2022-08-11T10:41:00.684Z,995.6005
2022-08-11T10:42:08.304Z,995.4921
2022-08-11T10:43:01.254Z,995.5659
2022-08-11T10:44:02.672Z,995.5214
2022-08-11T10:45:00.324Z,995.6019
2022-08-11T10:46:00.491Z,995.493
2022-08-11T10:47:00.637Z,995.6399
2022-08-11T10:48:00.812Z,995.4937
2022-08-11T10:49:00.955Z,995.4566
2022-08-11T10:50:01.096Z,995.553
2022-08-11T10:51:01.241Z,995.4705
2022-08-11T10:52:00.383Z,995.5003
2022-08-11T10:53:00.565Z,995.4259
2022-08-11T10:54:00.738Z,995.4636
2022-08-11T10:55:00.855Z,995.5387
2022-08-11T10:56:01.098Z,995.4342
2022-08-11T10:57:01.183Z,995.5387
2022-08-11T10:58:04.611Z,995.4636
2022-08-11T10:59:03.504Z,995.4259
2022-08-11T11:00:00.600Z,995.4252
2022-08-11T11:01:00.926Z,995.3729
2022-08-11T11:02:00.924Z,995.455
2022-08-11T11:03:21.874Z,995.4259
2022-08-11T11:04:01.239Z,995.3599
2022-08-11T11:05:00.364Z,995.4713
2022-08-11T11:06:13.010Z,995.404
2022-08-11T11:07:00.652Z,995.3746
2022-08-11T11:08:00.813Z,995.4497
2022-08-11T11:09:04.004Z,995.4345
2022-08-11T11:10:01.106Z,995.553
2022-08-11T11:11:01.243Z,995.4334
2022-08-11T11:12:00.388Z,995.3513
2022-08-11T11:13:00.550Z,995.4632
2022-08-11T11:14:00.719Z,995.3434
2022-08-11T11:15:00.952Z,995.3146
2022-08-11T11:16:01.021Z,995.2701
2022-08-11T11:17:01.305Z,995.3742
2022-08-11T11:18:00.424Z,995.3451
2022-08-11T11:19:01.353Z,995.4195
2022-08-11T11:20:00.611Z,995.3453
2022-08-11T11:21:00.750Z,995.2857
2022-08-11T11:22:00.890Z,995.1815
2022-08-11T11:23:01.034Z,995.4497
2022-08-11T11:24:01.183Z,995.2861
2022-08-11T11:25:00.349Z,995.2782
2022-08-11T11:26:00.486Z,995.2182
2022-08-11T11:27:00.648Z,995.1963
2022-08-11T11:28:00.800Z,995.3155
2022-08-11T11:29:00.944Z,995.3306
2022-08-11T11:30:01.111Z,995.2115
2022-08-11T11:31:01.271Z,995.4049
2022-08-11T11:32:00.414Z,995.3676
2022-08-11T11:33:00.555Z,995.3003
2022-08-11T11:34:06.787Z,995.3599
2022-08-11T11:35:00.841Z,995.1513
2022-08-11T11:36:01.025Z,995.3374
2022-08-11T11:37:01.155Z,995.4342
2022-08-11T11:38:04.821Z,995.2546
2022-08-11T11:39:00.443Z,995.2321
2022-08-11T11:40:00.599Z,995.2913
2022-08-11T11:41:00.766Z,995.1944
2022-08-11T11:42:00.912Z,995.2321
2022-08-11T11:43:01.167Z,995.2407
2022-08-11T11:44:01.531Z,995.1885
2022-08-11T11:45:01.458Z,995.1587
2022-08-11T11:46:00.499Z,995.0385
2022-08-11T11:47:00.631Z,995.195
2022-08-11T11:48:00.818Z,995.1944